Time;durP1;ratioP1;P1;durP2;ratioP2;P2;SDS_P1;SDS_P2;PMS_P1;PMS_P2;Temp;Humidity;BMP_temperature;BMP_pressure;BME280_temperature;BME280_humidity;BME280_pressure;Samples;Min_cycle;Max_cycle;Signal;HPM_P1;HPM_P2
2021/04/26 00:00:29;;;;;;;3.55;1.30;;;8.70;60.90;;;;;;5075841;28;20024;-68
2021/04/26 00:02:56;;;;;;;4.10;1.27;;;8.70;61.10;;;;;;5076412;28;20036;-70
2021/04/26 00:05:21;;;;;;;2.50;1.20;;;8.60;61.30;;;;;;5076327;28;20415;-69
2021/04/26 00:07:47;;;;;;;4.47;1.40;;;8.60;61.50;;;;;;5057919;28;20036;-69
2021/04/26 00:10:14;;;;;;;3.03;1.33;;;8.50;61.70;;;;;;5075937;28;20024;-68
2021/04/26 00:12:40;;;;;;;3.80;1.50;;;8.50;61.90;;;;;;5075905;28;20044;-69
2021/04/26 00:15:11;;;;;;;4.22;1.40;;;8.40;62.00;;;;;;5075705;28;20091;-68
2021/04/26 00:17:37;;;;;;;11.68;3.13;;;8.40;62.00;;;;;;5075805;28;20027;-69
2021/04/26 00:20:08;;;;;;;6.17;2.03;;;8.40;62.30;;;;;;5075749;28;20021;-67
2021/04/26 00:22:34;;;;;;;3.40;1.40;;;8.30;62.20;;;;;;5075823;28;20492;-68
2021/04/26 00:24:59;;;;;;;3.80;1.30;;;8.30;62.30;;;;;;5075129;28;20028;-69
2021/04/26 00:27:25;;;;;;;6.17;1.37;;;8.30;62.50;;;;;;5057397;28;20071;-69
2021/04/26 00:29:50;;;;;;;4.30;1.23;;;8.20;62.60;;;;;;5075954;28;20099;-69
2021/04/26 00:32:16;;;;;;;9.40;1.37;;;8.20;62.80;;;;;;5075785;28;20111;-69
2021/04/26 00:34:42;;;;;;;3.87;1.40;;;8.10;63.10;;;;;;5057584;28;20043;-68
2021/04/26 00:37:07;;;;;;;5.53;1.50;;;8.10;63.20;;;;;;5075674;28;20032;-69
2021/04/26 00:39:33;;;;;;;4.23;1.63;;;8.00;63.30;;;;;;5075872;28;20024;-69
2021/04/26 00:41:58;;;;;;;7.23;1.53;;;7.90;63.50;;;;;;5075760;28;20389;-69
2021/04/26 00:44:24;;;;;;;2.87;1.40;;;7.90;63.70;;;;;;5057532;28;20029;-70
2021/04/26 00:46:50;;;;;;;3.83;1.40;;;7.90;63.90;;;;;;5075560;28;20072;-67
2021/04/26 00:49:15;;;;;;;3.23;1.37;;;7.80;64.20;;;;;;5057488;28;20033;-68
2021/04/26 00:51:41;;;;;;;5.07;1.60;;;7.80;64.40;;;;;;5075244;28;20036;-68
2021/04/26 00:54:07;;;;;;;6.07;2.08;;;7.70;64.60;;;;;;5075724;28;20028;-69
2021/04/26 00:56:32;;;;;;;4.67;1.30;;;7.60;65.00;;;;;;5057022;28;20078;-69
2021/04/26 00:58:58;;;;;;;3.23;1.37;;;7.60;65.20;;;;;;5075192;28;20074;-68
2021/04/26 01:01:25;;;;;;;3.60;1.60;;;7.60;65.50;;;;;;5076185;28;20029;-67
2021/04/26 01:03:50;;;;;;;;;;;7.50;65.80;;;;;;5076487;28;20027;-69
2021/04/26 01:06:16;;;;;;;6.95;1.30;;;7.50;66.00;;;;;;5075172;28;19904;-68
2021/04/26 01:08:41;;;;;;;4.47;1.60;;;7.50;66.40;;;;;;5057189;28;20488;-69
2021/04/26 01:11:08;;;;;;;5.20;1.40;;;7.40;66.60;;;;;;5075407;28;20064;-67
2021/04/26 01:13:42;;;;;;;4.90;1.60;;;7.40;67.00;;;;;;5075219;28;20029;-68
2021/04/26 01:16:33;;;;;;;4.00;1.42;;;7.40;67.50;;;;;;5075441;28;20024;-68
2021/04/26 01:19:07;;;;;;;5.90;1.75;;;7.30;68.00;;;;;;5075169;28;20039;-69
2021/04/26 01:21:51;;;;;;;3.65;1.70;;;7.30;68.40;;;;;;5075207;28;20020;-69
2021/04/26 01:24:54;;;;;;;4.07;1.75;;;7.30;69.10;;;;;;5074990;28;20028;-68
2021/04/26 01:27:54;;;;;;;9.38;1.98;;;7.30;69.60;;;;;;5076068;28;20028;-68
2021/04/26 01:30:39;;;;;;;4.78;1.70;;;7.20;70.30;;;;;;5051543;28;20085;-67
2021/04/26 01:33:23;;;;;;;7.13;2.08;;;7.20;70.90;;;;;;5074667;28;20107;-68
2021/04/26 01:35:50;;;;;;;3.42;1.50;;;7.10;71.50;;;;;;5074324;28;20032;-66
2021/04/26 01:38:22;;;;;;;5.15;1.63;;;7.10;72.40;;;;;;5074379;28;20051;-68
2021/04/26 01:40:51;;;;;;;4.85;1.85;;;7.10;73.80;;;;;;5075002;28;20021;-68
2021/04/26 01:43:20;;;;;;;6.30;2.17;;;7.10;74.10;;;;;;5074175;28;20391;-69
2021/04/26 01:45:48;;;;;;;5.82;2.25;;;7.10;74.80;;;;;;5074155;28;20093;-68
2021/04/26 01:48:14;;;;;;;4.22;1.80;;;7.00;75.60;;;;;;5074180;28;20017;-68
2021/04/26 01:50:41;;;;;;;4.25;1.92;;;7.00;76.50;;;;;;5074269;28;20104;-68
2021/04/26 01:53:07;;;;;;;7.28;2.03;;;7.00;77.60;;;;;;5056045;28;20120;-68
2021/04/26 01:55:34;;;;;;;3.55;1.70;;;7.00;78.70;;;;;;5074350;28;20017;-68
2021/04/26 01:58:00;;;;;;;6.75;1.98;;;7.00;79.60;;;;;;5056359;28;20025;-69
2021/04/26 02:00:32;;;;;;;;;;;6.90;80.60;;;;;;5056702;28;20025;-67
2021/04/26 02:02:59;;;;;;;6.95;1.90;;;6.90;81.90;;;;;;5073935;28;19904;-68
2021/04/26 02:05:26;;;;;;;7.25;1.90;;;6.90;82.90;;;;;;5073705;28;20029;-68
2021/04/26 02:07:53;;;;;;;7.18;2.30;;;6.80;84.20;;;;;;5073657;28;20481;-67
2021/04/26 02:10:22;;;;;;;8.13;2.50;;;6.80;85.40;;;;;;5073554;28;20032;-68
2021/04/26 02:12:49;;;;;;;5.90;1.83;;;6.80;86.60;;;;;;5074069;28;20469;-69
2021/04/26 02:15:15;;;;;;;;;;;6.80;88.40;;;;;;5073897;28;20021;-68
2021/04/26 02:17:41;;;;;;;5.13;2.40;;;6.80;88.90;;;;;;5073507;28;19908;-69
2021/04/26 02:20:09;;;;;;;5.05;2.20;;;6.70;90.00;;;;;;5073564;28;20543;-68
2021/04/26 02:22:35;;;;;;;7.07;2.50;;;6.70;90.70;;;;;;5073570;28;20043;-68
2021/04/26 02:25:01;;;;;;;7.97;2.22;;;6.70;91.10;;;;;;5073674;28;20029;-68
2021/04/26 02:27:27;;;;;;;8.57;2.55;;;6.70;91.60;;;;;;5073575;28;20374;-66
2021/04/26 02:29:53;;;;;;;6.93;2.15;;;6.60;92.10;;;;;;5073686;28;20028;-68
2021/04/26 02:32:49;;;;;;;8.32;2.42;;;6.60;92.60;;;;;;5073288;28;20055;-67
2021/04/26 02:35:21;;;;;;;7.00;2.40;;;6.60;93.00;;;;;;5050026;28;20393;-69
2021/04/26 02:37:53;;;;;;;6.65;2.67;;;6.60;93.50;;;;;;5073354;28;20029;-70
2021/04/26 02:40:20;;;;;;;9.30;2.83;;;6.60;93.70;;;;;;5055572;28;20034;-68
2021/04/26 02:42:47;;;;;;;4.47;2.70;;;6.60;94.00;;;;;;5055579;28;20502;-67
2021/04/26 02:45:21;;;;;;;7.53;2.72;;;6.60;94.30;;;;;;5074339;28;20032;-68
2021/04/26 02:47:49;;;;;;;4.28;2.40;;;6.60;94.50;;;;;;5056396;28;20025;-68
2021/04/26 02:50:22;;;;;;;6.05;2.55;;;6.60;94.80;;;;;;5074138;28;20104;-69
2021/04/26 02:52:48;;;;;;;7.60;2.92;;;6.60;95.10;;;;;;5073782;28;20027;-68
2021/04/26 02:55:15;;;;;;;6.85;2.75;;;6.50;95.40;;;;;;5073438;28;20032;-67
2021/04/26 02:57:41;;;;;;;9.02;2.85;;;6.50;95.60;;;;;;5073437;28;20027;-68
2021/04/26 03:00:10;;;;;;;9.43;3.05;;;6.50;96.00;;;;;;5073455;28;20504;-68
2021/04/26 03:02:38;;;;;;;5.80;3.00;;;6.40;96.30;;;;;;5073618;28;20032;-70
2021/04/26 03:05:05;;;;;;;5.53;2.75;;;6.40;96.50;;;;;;5074158;28;20017;-68
2021/04/26 03:07:31;;;;;;;4.68;2.80;;;6.40;96.80;;;;;;5076041;28;20024;-69
2021/04/26 03:09:58;;;;;;;;;;;6.40;97.00;;;;;;5074939;28;20470;-68
2021/04/26 03:12:24;;;;;;;8.17;3.10;;;6.30;97.10;;;;;;5056772;28;19905;-68
2021/04/26 03:14:51;;;;;;;7.20;3.00;;;6.30;97.30;;;;;;5073936;28;20255;-68
2021/04/26 03:17:17;;;;;;;7.20;3.72;;;6.30;97.50;;;;;;5056630;28;20179;-68
2021/04/26 03:19:44;;;;;;;6.67;3.03;;;6.30;97.70;;;;;;5074293;28;20115;-68
2021/04/26 03:22:11;;;;;;;5.63;3.05;;;6.20;97.80;;;;;;5055893;28;20036;-68
2021/04/26 03:24:37;;;;;;;11.60;3.58;;;6.20;98.00;;;;;;5074457;28;20028;-67
2021/04/26 03:27:05;;;;;;;6.53;3.10;;;6.20;98.00;;;;;;5074826;28;20508;-67
2021/04/26 03:29:31;;;;;;;9.45;3.13;;;6.20;98.10;;;;;;5073868;28;20013;-68
2021/04/26 03:31:59;;;;;;;10.57;3.17;;;6.10;98.30;;;;;;5074317;28;20470;-69
2021/04/26 03:34:25;;;;;;;7.82;3.40;;;6.10;98.50;;;;;;5056049;28;20032;-69
2021/04/26 03:36:51;;;;;;;7.78;3.33;;;6.00;98.40;;;;;;5055710;28;20531;-68
2021/04/26 03:39:17;;;;;;;8.95;2.83;;;6.00;98.60;;;;;;5073186;28;20490;-69
2021/04/26 03:41:43;;;;;;;7.27;3.60;;;6.00;98.70;;;;;;5073363;28;20031;-63
2021/04/26 03:44:17;;;;;;;6.18;3.38;;;6.00;98.70;;;;;;5072624;28;20486;-64
2021/04/26 03:46:56;;;;;;;7.10;3.10;;;6.00;98.80;;;;;;5072768;28;20052;-64
2021/04/26 03:49:22;;;;;;;11.20;3.20;;;6.00;98.80;;;;;;5072941;28;20020;-64
2021/04/26 03:51:48;;;;;;;;;;;6.00;98.90;;;;;;5072970;28;20572;-64
2021/04/26 03:54:14;;;;;;;9.23;3.17;;;5.90;98.90;;;;;;5073203;28;19998;-64
2021/04/26 03:56:40;;;;;;;9.43;3.55;;;5.90;99.00;;;;;;5072706;28;20034;-64
2021/04/26 03:59:06;;;;;;;6.00;3.33;;;5.90;99.00;;;;;;5055005;28;20029;-65
2021/04/26 04:01:32;;;;;;;6.57;4.10;;;5.90;98.90;;;;;;5076624;28;20225;-65
2021/04/26 04:03:57;;;;;;;8.73;2.93;;;5.90;98.90;;;;;;5076037;28;20075;-65
2021/04/26 04:06:23;;;;;;;7.73;3.90;;;5.90;98.90;;;;;;5075906;28;20385;-63
2021/04/26 04:08:49;;;;;;;6.90;3.80;;;5.90;98.90;;;;;;5075951;28;20028;-63
2021/04/26 04:11:15;;;;;;;7.63;3.37;;;6.00;98.90;;;;;;5076126;28;20028;-65
2021/04/26 04:13:41;;;;;;;7.70;3.58;;;6.00;98.90;;;;;;5076326;28;20040;-63
2021/04/26 04:16:07;;;;;;;7.18;3.30;;;6.00;98.90;;;;;;5076020;28;20386;-65
2021/04/26 04:18:33;;;;;;;8.02;3.65;;;5.90;98.90;;;;;;5075838;28;20052;-64
2021/04/26 04:20:59;;;;;;;6.53;3.75;;;5.90;99.10;;;;;;5057832;28;20577;-64
2021/04/26 04:23:24;;;;;;;7.20;3.23;;;5.80;99.20;;;;;;5075900;28;20052;-64
2021/04/26 04:25:50;;;;;;;6.10;3.37;;;5.80;99.20;;;;;;5075586;28;20024;-64
2021/04/26 04:28:15;;;;;;;9.57;3.60;;;5.80;99.20;;;;;;5057841;28;20385;-64
2021/04/26 04:30:41;;;;;;;7.77;3.40;;;5.80;99.30;;;;;;5076076;28;20020;-62
2021/04/26 04:33:07;;;;;;;7.83;3.47;;;5.70;99.40;;;;;;5076009;28;20383;-64
2021/04/26 04:35:33;;;;;;;7.03;3.72;;;5.70;99.50;;;;;;5076325;28;20437;-64
2021/04/26 04:37:59;;;;;;;10.40;4.07;;;5.70;99.60;;;;;;5076051;28;20181;-64
2021/04/26 04:40:24;;;;;;;4.60;2.90;;;5.70;99.60;;;;;;5075419;28;20485;-64
2021/04/26 04:42:50;;;;;;;8.00;3.30;;;5.70;99.70;;;;;;5075343;28;20532;-64
2021/04/26 04:45:19;;;;;;;11.73;3.63;;;5.70;99.60;;;;;;5075478;28;20044;-66
2021/04/26 04:47:45;;;;;;;10.02;3.65;;;5.70;99.60;;;;;;5075218;28;20020;-66
2021/04/26 04:50:11;;;;;;;6.03;3.80;;;5.70;99.70;;;;;;5075326;28;20017;-66
2021/04/26 04:52:36;;;;;;;6.65;3.10;;;5.70;99.70;;;;;;5075327;28;20028;-66
2021/04/26 04:55:02;;;;;;;8.27;3.23;;;5.70;99.70;;;;;;5074911;28;20477;-65
2021/04/26 04:57:28;;;;;;;6.32;3.30;;;5.70;99.50;;;;;;5075009;28;20093;-66
2021/04/26 04:59:54;;;;;;;11.40;3.60;;;5.70;99.50;;;;;;5075307;28;20033;-66
2021/04/26 05:02:19;;;;;;;9.30;3.47;;;5.70;99.50;;;;;;5075655;28;20024;-66
2021/04/26 05:04:45;;;;;;;7.83;3.47;;;5.70;99.50;;;;;;5074843;28;20071;-65
2021/04/26 05:07:11;;;;;;;5.17;3.57;;;5.70;99.30;;;;;;5057181;28;20040;-66
2021/04/26 05:09:36;;;;;;;9.93;3.28;;;5.80;99.40;;;;;;5074893;28;20063;-66
2021/04/26 05:12:02;;;;;;;7.87;3.43;;;5.80;99.30;;;;;;5074824;28;20100;-66
2021/04/26 05:14:29;;;;;;;8.35;3.25;;;5.80;99.20;;;;;;5057093;28;20481;-67
2021/04/26 05:16:56;;;;;;;6.95;3.30;;;5.80;99.10;;;;;;5057192;28;20032;-67
2021/04/26 05:19:22;;;;;;;8.60;3.25;;;5.80;99.00;;;;;;5074946;28;20028;-67
2021/04/26 05:21:48;;;;;;;8.77;3.70;;;5.90;98.90;;;;;;5074788;28;20020;-66
2021/04/26 05:24:14;;;;;;;8.33;3.40;;;5.90;98.80;;;;;;5056878;28;20285;-67
2021/04/26 05:26:39;;;;;;;8.63;3.47;;;6.00;98.80;;;;;;5074672;28;20020;-66
2021/04/26 05:29:05;;;;;;;9.32;3.58;;;6.00;98.50;;;;;;5074939;28;20021;-67
2021/04/26 05:31:31;;;;;;;12.40;4.88;;;6.10;98.60;;;;;;5074652;28;20032;-68
2021/04/26 05:33:56;;;;;;;11.40;3.73;;;6.10;98.40;;;;;;5057134;28;20052;-66
2021/04/26 05:36:22;;;;;;;10.23;3.57;;;6.10;98.10;;;;;;5074786;28;20032;-67
2021/04/26 05:38:48;;;;;;;5.37;3.10;;;6.20;97.90;;;;;;5075213;28;20032;-66
2021/04/26 05:41:14;;;;;;;10.32;3.90;;;6.20;97.90;;;;;;5074974;28;20033;-67
2021/04/26 05:43:39;;;;;;;5.60;3.27;;;6.30;97.80;;;;;;5056019;28;20120;-69
2021/04/26 05:46:05;;;;;;;7.73;3.43;;;6.30;97.60;;;;;;5055763;28;20027;-66
2021/04/26 05:48:31;;;;;;;8.90;3.47;;;6.40;97.50;;;;;;5055955;28;20021;-67
2021/04/26 05:50:56;;;;;;;7.38;3.97;;;6.40;97.20;;;;;;5074398;28;20029;-66
2021/04/26 05:53:22;;;;;;;6.77;3.60;;;6.40;97.20;;;;;;5074322;28;20088;-67
2021/04/26 05:55:49;;;;;;;8.23;3.65;;;6.50;97.00;;;;;;5055715;28;20073;-68
2021/04/26 05:58:15;;;;;;;;;;;6.50;96.90;;;;;;5074508;28;20025;-67
2021/04/26 06:00:40;;;;;;;10.55;3.65;;;6.60;96.70;;;;;;5056304;28;19911;-66
2021/04/26 06:03:06;;;;;;;8.30;3.50;;;6.60;96.60;;;;;;5074358;28;20056;-67
2021/04/26 06:05:32;;;;;;;6.23;3.53;;;6.70;96.30;;;;;;5074232;28;20082;-67
2021/04/26 06:07:59;;;;;;;10.63;3.78;;;6.70;96.40;;;;;;5074935;28;20078;-68
2021/04/26 06:10:25;;;;;;;9.07;3.38;;;6.80;96.10;;;;;;5074011;28;20048;-67
2021/04/26 06:12:51;;;;;;;9.55;3.35;;;6.80;96.00;;;;;;5074005;28;20024;-67
2021/04/26 06:15:16;;;;;;;6.87;3.23;;;6.90;95.90;;;;;;5055744;28;20116;-67
2021/04/26 06:17:42;;;;;;;8.73;4.13;;;7.00;95.80;;;;;;5073437;28;20024;-67
2021/04/26 06:20:09;;;;;;;12.03;3.63;;;7.00;95.60;;;;;;5055538;28;20025;-67
2021/04/26 06:22:34;;;;;;;8.45;3.22;;;7.10;95.00;;;;;;5072838;28;20074;-67
2021/04/26 06:25:00;;;;;;;5.33;3.00;;;7.10;94.90;;;;;;5073969;28;20017;-67
2021/04/26 06:27:26;;;;;;;8.63;3.40;;;7.20;94.80;;;;;;5074485;28;20020;-67
2021/04/26 06:29:52;;;;;;;7.57;3.57;;;7.30;94.70;;;;;;5074500;28;20025;-66
2021/04/26 06:32:18;;;;;;;8.67;3.70;;;7.30;94.20;;;;;;5073533;28;20072;-67
2021/04/26 06:34:44;;;;;;;10.02;3.90;;;7.40;94.00;;;;;;5055369;28;20134;-67
2021/04/26 06:37:09;;;;;;;5.75;3.30;;;7.50;93.60;;;;;;5073359;28;20489;-67
2021/04/26 06:39:35;;;;;;;7.70;3.40;;;7.60;93.50;;;;;;5073956;28;20134;-66
2021/04/26 06:42:01;;;;;;;6.50;3.50;;;7.60;93.00;;;;;;5055366;28;20077;-68
2021/04/26 06:44:28;;;;;;;7.68;4.50;;;7.70;93.20;;;;;;5072808;28;20067;-66
2021/04/26 06:46:53;;;;;;;10.00;3.95;;;7.80;92.90;;;;;;5072434;28;20063;-67
2021/04/26 06:49:20;;;;;;;7.40;4.10;;;7.80;92.80;;;;;;5054906;28;20056;-67
2021/04/26 06:51:47;;;;;;;7.57;3.22;;;7.90;92.70;;;;;;5055039;28;20453;-66
2021/04/26 06:54:13;;;;;;;7.43;3.97;;;8.00;92.30;;;;;;5055142;28;20074;-66
2021/04/26 06:56:39;;;;;;;11.45;4.07;;;8.10;91.80;;;;;;5072993;28;20477;-67
2021/04/26 06:59:05;;;;;;;9.07;4.00;;;8.20;91.00;;;;;;5072952;28;20043;-66
2021/04/26 07:01:30;;;;;;;11.90;3.63;;;8.20;91.00;;;;;;5055378;28;20028;-66
2021/04/26 07:03:56;;;;;;;8.20;3.57;;;8.30;90.50;;;;;;5054806;28;20025;-66
2021/04/26 07:06:22;;;;;;;7.25;3.60;;;8.40;91.10;;;;;;5073128;28;20530;-67
2021/04/26 07:08:48;;;;;;;6.43;3.77;;;8.50;90.50;;;;;;5055019;28;20036;-67
2021/04/26 07:11:14;;;;;;;8.07;4.03;;;8.50;90.50;;;;;;5073022;28;20025;-67
2021/04/26 07:13:39;;;;;;;12.53;4.57;;;8.50;90.20;;;;;;5072768;28;20337;-67
2021/04/26 07:16:05;;;;;;;5.83;3.83;;;8.50;90.20;;;;;;5072897;28;20025;-68
2021/04/26 07:18:31;;;;;;;10.53;4.23;;;8.50;90.00;;;;;;5055365;28;20027;-67
2021/04/26 07:20:57;;;;;;;7.80;3.97;;;8.60;89.40;;;;;;5073417;28;20354;-67
2021/04/26 07:23:22;;;;;;;7.70;3.75;;;8.60;89.40;;;;;;5073194;28;20050;-67
2021/04/26 07:25:48;;;;;;;7.93;3.60;;;8.70;89.30;;;;;;5073163;28;20108;-67
2021/04/26 07:28:14;;;;;;;8.33;4.77;;;8.80;88.80;;;;;;5073770;28;20028;-66
2021/04/26 07:30:39;;;;;;;10.30;4.10;;;8.90;87.80;;;;;;5056661;28;20025;-67
2021/04/26 07:33:06;;;;;;;9.47;3.67;;;8.90;88.40;;;;;;5074209;28;20472;-67
2021/04/26 07:35:31;;;;;;;7.82;3.85;;;8.90;87.90;;;;;;5077168;28;20166;-67
2021/04/26 07:37:57;;;;;;;7.63;3.80;;;9.00;87.30;;;;;;5076751;28;20037;-67
2021/04/26 07:40:23;;;;;;;8.73;4.33;;;9.10;87.10;;;;;;5076892;28;20032;-66
2021/04/26 07:42:48;;;;;;;6.00;3.70;;;9.20;86.50;;;;;;5076891;28;20077;-66
2021/04/26 07:45:20;;;;;;;7.73;3.70;;;9.30;86.30;;;;;;5077562;28;20150;-66
2021/04/26 07:47:48;;;;;;;6.90;4.00;;;9.30;85.80;;;;;;5076878;28;20040;-66
2021/04/26 07:50:14;;;;;;;11.65;5.40;;;9.30;85.70;;;;;;5076459;28;20303;-67
2021/04/26 07:52:40;;;;;;;7.15;4.05;;;9.40;85.40;;;;;;5076403;28;20442;-67
2021/04/26 07:55:06;;;;;;;11.90;4.30;;;9.40;85.50;;;;;;5076205;28;20060;-68
2021/04/26 07:57:40;;;;;;;6.70;3.65;;;9.50;85.10;;;;;;5076298;28;20029;-67
2021/04/26 08:00:07;;;;;;;7.53;3.80;;;9.60;84.90;;;;;;5076425;28;20025;-66
2021/04/26 08:02:33;;;;;;;9.48;4.22;;;9.80;85.00;;;;;;5058474;28;20573;-67
2021/04/26 08:04:59;;;;;;;7.75;3.85;;;9.90;84.30;;;;;;5076974;28;20058;-66
2021/04/26 08:07:24;;;;;;;10.73;3.80;;;10.10;83.90;;;;;;5058218;28;20111;-67
2021/04/26 08:09:53;;;;;;;9.13;4.38;;;10.20;82.90;;;;;;5058554;28;20042;-67
2021/04/26 08:12:20;;;;;;;7.93;4.00;;;10.50;81.70;;;;;;5077102;28;20035;-67
2021/04/26 08:14:46;;;;;;;6.90;3.72;;;10.50;80.80;;;;;;5076680;28;20052;-67
2021/04/26 08:17:12;;;;;;;8.68;3.60;;;10.80;79.90;;;;;;5058280;28;20052;-67
2021/04/26 08:19:37;;;;;;;9.63;4.13;;;11.80;77.40;;;;;;5058133;28;20028;-68
2021/04/26 08:22:03;;;;;;;9.97;3.70;;;12.60;73.90;;;;;;5075874;28;20032;-66
2021/04/26 08:24:29;;;;;;;8.43;3.55;;;13.80;70.70;;;;;;5058202;28;20021;-67
2021/04/26 08:26:57;;;;;;;7.07;3.45;;;14.50;66.70;;;;;;5076122;28;20103;-66
2021/04/26 08:29:23;;;;;;;7.80;4.22;;;15.20;62.90;;;;;;5058302;28;20032;-67
2021/04/26 08:31:49;;;;;;;4.50;3.28;;;16.60;59.20;;;;;;5076379;28;20417;-67
2021/04/26 08:34:14;;;;;;;9.98;4.10;;;17.60;54.70;;;;;;5075765;28;20366;-66
2021/04/26 08:36:40;;;;;;;8.13;3.55;;;18.10;52.80;;;;;;5075640;28;20494;-67
2021/04/26 08:39:06;;;;;;;6.47;3.65;;;19.00;50.50;;;;;;5057558;28;20032;-67
2021/04/26 08:41:32;;;;;;;8.85;3.80;;;19.20;48.80;;;;;;5076549;28;20028;-67
2021/04/26 08:43:58;;;;;;;8.23;3.58;;;19.50;48.30;;;;;;5057740;28;20038;-66
2021/04/26 08:46:24;;;;;;;9.02;4.32;;;19.90;47.40;;;;;;5075118;28;20032;-67
2021/04/26 08:48:49;;;;;;;;;;;21.50;44.60;;;;;;5058011;28;20067;-67
2021/04/26 08:51:15;;;;;;;6.95;3.88;;;21.70;43.00;;;;;;5075544;28;19939;-67
2021/04/26 08:53:41;;;;;;;;;;;21.00;43.30;;;;;;5075678;28;20052;-67
2021/04/26 08:56:08;;;;;;;9.32;4.20;;;20.30;43.70;;;;;;5057356;28;19927;-66
2021/04/26 08:58:35;;;;;;;6.70;3.83;;;19.40;44.90;;;;;;5075195;28;20107;-68
2021/04/26 09:01:01;;;;;;;6.68;3.95;;;19.10;45.40;;;;;;5075285;28;20361;-66
2021/04/26 09:03:37;;;;;;;6.10;3.75;;;19.80;44.70;;;;;;5075684;28;20099;-67
2021/04/26 09:06:05;;;;;;;;;;;20.60;43.80;;;;;;5057367;28;20082;-66
2021/04/26 09:08:31;;;;;;;6.72;4.30;;;20.50;43.60;;;;;;5057091;28;19991;-68
2021/04/26 09:11:05;;;;;;;7.38;4.05;;;20.80;43.30;;;;;;5075279;28;20063;-67
2021/04/26 09:13:41;;;;;;;7.18;3.85;;;21.20;43.00;;;;;;5057596;28;20481;-68
2021/04/26 09:16:18;;;;;;;5.63;3.90;;;21.80;41.70;;;;;;5075616;28;20028;-66
2021/04/26 09:19:02;;;;;;;9.98;3.67;;;22.80;40.70;;;;;;5057803;28;20032;-67
2021/04/26 09:21:35;;;;;;;6.55;3.70;;;23.80;39.50;;;;;;5057337;28;20062;-67
2021/04/26 09:24:25;;;;;;;6.25;3.90;;;25.10;38.10;;;;;;5076450;28;20107;-66
2021/04/26 09:27:08;;;;;;;15.10;4.22;;;23.00;39.60;;;;;;5077335;28;20020;-67
2021/04/26 09:29:34;;;;;;;5.78;3.97;;;23.30;39.10;;;;;;5075930;28;20020;-67
2021/04/26 09:32:04;;;;;;;;;;;21.50;40.70;;;;;;5076820;28;20389;-66
2021/04/26 09:34:31;;;;;;;7.95;4.18;;;21.20;41.10;;;;;;5057571;28;19908;-67
2021/04/26 09:37:09;;;;;;;7.72;3.90;;;21.70;41.00;;;;;;5057812;28;20033;-66
2021/04/26 09:39:57;;;;;;;5.97;3.97;;;22.30;40.40;;;;;;5075687;28;20033;-66
2021/04/26 09:42:46;;;;;;;7.63;4.03;;;21.90;40.20;;;;;;5078469;28;20029;-67
2021/04/26 09:45:27;;;;;;;7.85;4.10;;;21.80;41.00;;;;;;5075810;28;20027;-66
2021/04/26 09:48:13;;;;;;;5.40;3.60;;;21.00;41.50;;;;;;5057180;28;20020;-66
2021/04/26 09:51:06;;;;;;;6.65;4.00;;;21.20;41.40;;;;;;5057488;28;20020;-66
2021/04/26 09:53:39;;;;;;;6.97;4.22;;;21.80;40.20;;;;;;5057610;28;20052;-66
2021/04/26 09:56:16;;;;;;;8.43;3.90;;;21.50;41.00;;;;;;5057354;28;20029;-66
2021/04/26 09:58:45;;;;;;;7.00;4.47;;;21.70;40.40;;;;;;5056880;28;20077;-66
2021/04/26 10:01:11;;;;;;;7.45;4.10;;;21.30;41.00;;;;;;5074460;28;20032;-67
2021/04/26 10:03:37;;;;;;;9.13;3.95;;;21.80;40.50;;;;;;5056334;28;20016;-67
2021/04/26 10:06:02;;;;;;;;;;;22.00;40.40;;;;;;5074193;28;20028;-67
2021/04/26 10:08:28;;;;;;;8.63;4.13;;;23.30;39.30;;;;;;5073993;28;20325;-67
2021/04/26 10:10:56;;;;;;;8.15;4.60;;;24.20;37.70;;;;;;5056224;28;20063;-66
2021/04/26 10:13:23;;;;;;;6.65;3.33;;;23.20;38.60;;;;;;5074036;28;20024;-67
2021/04/26 10:15:57;;;;;;;6.57;4.10;;;24.50;37.80;;;;;;5073608;28;20149;-67
2021/04/26 10:18:37;;;;;;;6.93;3.75;;;24.20;37.30;;;;;;5073790;28;20048;-67
2021/04/26 10:21:30;;;;;;;8.27;4.20;;;22.80;38.60;;;;;;5073786;28;20020;-68
2021/04/26 10:23:56;;;;;;;5.95;3.75;;;23.00;38.60;;;;;;5071318;28;20169;-67
2021/04/26 10:26:40;;;;;;;;;;;22.90;38.80;;;;;;5073943;28;20469;-68
2021/04/26 10:29:08;;;;;;;11.70;4.70;;;22.50;39.50;;;;;;5055320;28;20281;-68
2021/04/26 10:31:57;;;;;;;5.95;3.70;;;22.80;39.10;;;;;;5055152;28;20039;-68
2021/04/26 10:34:23;;;;;;;7.10;3.85;;;23.00;38.90;;;;;;5073315;28;20158;-67
2021/04/26 10:36:53;;;;;;;5.10;3.72;;;23.40;38.80;;;;;;5073039;28;20157;-66
2021/04/26 10:39:21;;;;;;;8.82;4.30;;;24.20;38.30;;;;;;5073144;28;20020;-66
2021/04/26 10:41:47;;;;;;;11.32;4.03;;;24.10;37.40;;;;;;5073069;28;20087;-67
2021/04/26 10:44:13;;;;;;;;;;;23.50;38.30;;;;;;5073687;28;20031;-68
2021/04/26 10:46:38;;;;;;;8.88;4.03;;;23.10;38.80;;;;;;5073332;28;19912;-68
2021/04/26 10:49:05;;;;;;;;;;;24.00;37.70;;;;;;5074111;28;20020;-67
2021/04/26 10:51:32;;;;;;;17.15;10.52;;;24.20;37.80;;;;;;5055491;28;19904;-67
2021/04/26 10:53:58;;;;;;;10.15;6.13;;;23.70;38.20;;;;;;5073685;28;20048;-66
2021/04/26 10:56:24;;;;;;;;;;;22.80;38.60;;;;;;5074090;28;20031;-66
2021/04/26 10:58:52;;;;;;;6.30;3.70;;;22.80;38.50;;;;;;5055248;28;19995;-67
2021/04/26 11:01:48;;;;;;;9.25;6.03;;;23.70;37.60;;;;;;5055091;28;20071;-67
2021/04/26 11:04:13;;;;;;;6.78;3.88;;;24.20;36.80;;;;;;5055636;28;20024;-65
2021/04/26 11:06:39;;;;;;;;;;;23.50;37.20;;;;;;5073673;28;20043;-65
2021/04/26 11:09:07;;;;;;;7.03;4.07;;;22.00;39.30;;;;;;5077773;28;19973;-65
2021/04/26 11:11:41;;;;;;;10.90;4.20;;;20.80;40.20;;;;;;5079259;28;20031;-67
2021/04/26 11:14:07;;;;;;;8.60;4.60;;;20.00;41.80;;;;;;5061614;28;20021;-66
2021/04/26 11:16:55;;;;;;;7.00;4.35;;;19.20;42.60;;;;;;5079224;28;20089;-67
2021/04/26 11:19:21;;;;;;;7.22;3.75;;;18.20;44.20;;;;;;5060986;28;20029;-66
2021/04/26 11:21:47;;;;;;;10.45;3.63;;;17.90;44.50;;;;;;5079308;28;20078;-66
2021/04/26 11:24:25;;;;;;;7.88;4.10;;;17.80;44.70;;;;;;5079297;28;20163;-65
2021/04/26 11:27:08;;;;;;;7.10;3.88;;;17.20;44.20;;;;;;5079697;28;20075;-65
2021/04/26 11:29:35;;;;;;;7.32;3.55;;;16.80;45.00;;;;;;5079220;28;20024;-65
2021/04/26 11:32:03;;;;;;;4.57;3.08;;;16.50;45.30;;;;;;5079397;28;20040;-66
2021/04/26 11:34:49;;;;;;;6.20;3.35;;;16.30;44.70;;;;;;5061409;28;20032;-66
2021/04/26 11:37:21;;;;;;;6.63;3.65;;;16.20;45.50;;;;;;5062095;28;20050;-67
2021/04/26 11:39:48;;;;;;;10.32;4.00;;;16.10;44.70;;;;;;5062155;28;20029;-66
2021/04/26 11:42:26;;;;;;;7.72;3.85;;;16.20;45.50;;;;;;5081278;28;20098;-66
2021/04/26 11:44:52;;;;;;;8.20;3.53;;;16.00;45.40;;;;;;5080260;28;20043;-65
2021/04/26 11:47:20;;;;;;;7.55;3.65;;;15.80;46.20;;;;;;5079619;28;20036;-66
2021/04/26 11:49:50;;;;;;;11.88;4.20;;;15.90;46.20;;;;;;5079508;28;20032;-64
2021/04/26 11:52:25;;;;;;;10.20;3.80;;;16.00;46.40;;;;;;5061227;28;20068;-67
2021/04/26 11:54:53;;;;;;;9.07;3.75;;;16.00;47.50;;;;;;5079039;28;20381;-65
2021/04/26 11:57:20;;;;;;;7.45;3.13;;;16.00;46.80;;;;;;5060784;28;20028;-65
2021/04/26 12:00:00;;;;;;;6.47;3.60;;;15.90;44.00;;;;;;5079290;28;20025;-65
2021/04/26 12:02:26;;;;;;;5.80;3.35;;;15.90;43.90;;;;;;5079184;28;20029;-64
2021/04/26 12:04:53;;;;;;;6.55;3.00;;;16.00;43.10;;;;;;5078959;28;20021;-66
2021/04/26 12:07:19;;;;;;;12.93;3.30;;;16.00;45.00;;;;;;5079130;28;20026;-65
2021/04/26 12:09:52;;;;;;;;;;;16.10;44.40;;;;;;5061483;28;20414;-66
2021/04/26 12:12:21;;;;;;;7.07;3.55;;;15.90;45.50;;;;;;5079149;28;19968;-65
2021/04/26 12:15:18;;;;;;;7.93;3.63;;;15.80;45.20;;;;;;5078934;28;20031;-65
2021/04/26 12:17:55;;;;;;;8.13;3.65;;;15.80;45.00;;;;;;5075981;28;20119;-66
2021/04/26 12:20:27;;;;;;;5.03;3.22;;;15.80;45.40;;;;;;5075922;28;20462;-65
2021/04/26 12:22:55;;;;;;;7.00;3.47;;;15.90;44.60;;;;;;5075618;28;20077;-65
2021/04/26 12:25:23;;;;;;;7.13;3.40;;;16.00;45.00;;;;;;5075707;28;20069;-65
2021/04/26 12:28:02;;;;;;;6.57;3.85;;;16.10;45.10;;;;;;5076316;28;20020;-65
2021/04/26 12:30:28;;;;;;;6.70;3.20;;;16.00;45.10;;;;;;5076326;28;20377;-66
2021/04/26 12:32:58;;;;;;;;;;;15.90;44.60;;;;;;5058382;28;20032;-66
2021/04/26 12:35:29;;;;;;;8.15;3.00;;;16.00;45.00;;;;;;5076227;28;19905;-65
2021/04/26 12:37:57;;;;;;;8.10;3.25;;;16.20;43.60;;;;;;5075795;28;20064;-65
2021/04/26 12:40:25;;;;;;;10.00;3.42;;;16.30;45.40;;;;;;5075895;28;20021;-65
2021/04/26 12:42:57;;;;;;;7.47;3.20;;;16.40;44.20;;;;;;5058162;28;20025;-65
2021/04/26 12:45:34;;;;;;;7.13;3.53;;;16.50;44.00;;;;;;5075836;28;20023;-65
2021/04/26 12:48:10;;;;;;;8.40;3.60;;;16.60;43.80;;;;;;5075989;28;20025;-70
2021/04/26 12:50:44;;;;;;;7.20;3.35;;;16.60;43.70;;;;;;5057872;28;20052;-69
2021/04/26 12:53:34;;;;;;;8.65;3.85;;;16.60;43.40;;;;;;5077675;28;20024;-70
2021/04/26 12:56:00;;;;;;;7.80;3.60;;;16.40;44.00;;;;;;5077612;28;20366;-69
2021/04/26 12:58:42;;;;;;;6.87;3.10;;;16.40;43.60;;;;;;5076127;28;20104;-68
2021/04/26 13:01:17;;;;;;;5.57;4.05;;;16.30;44.00;;;;;;5057393;28;20028;-68
2021/04/26 13:03:57;;;;;;;6.10;3.40;;;16.20;44.50;;;;;;5057537;28;20028;-70
2021/04/26 13:06:30;;;;;;;8.00;3.13;;;16.30;44.90;;;;;;5075820;28;20047;-70